sensor_id;sensor_type;location;lat;lon;timestamp;P1;durP1;ratioP1;P2;durP2;ratioP2
22144;SDS011;11238;48.730;11.566;2022-11-06T00:02:01;13.25;;;9.13;;
22144;SDS011;11238;48.730;11.566;2022-11-06T00:04:28;15.18;;;9.13;;
22144;SDS011;11238;48.730;11.566;2022-11-06T00:06:54;15.30;;;10.98;;
22144;SDS011;11238;48.730;11.566;2022-11-06T00:09:20;16.63;;;10.82;;
22144;SDS011;11238;48.730;11.566;2022-11-06T00:11:47;16.67;;;9.70;;
22144;SDS011;11238;48.730;11.566;2022-11-06T00:14:14;20.48;;;12.35;;
22144;SDS011;11238;48.730;11.566;2022-11-06T00:16:40;17.25;;;11.20;;
22144;SDS011;11238;48.730;11.566;2022-11-06T00:19:07;16.08;;;11.00;;
22144;SDS011;11238;48.730;11.566;2022-11-06T00:21:34;17.73;;;11.00;;
22144;SDS011;11238;48.730;11.566;2022-11-06T00:24:01;16.75;;;10.25;;
22144;SDS011;11238;48.730;11.566;2022-11-06T00:26:29;17.27;;;11.85;;
22144;SDS011;11238;48.730;11.566;2022-11-06T00:28:56;18.95;;;11.07;;
22144;SDS011;11238;48.730;11.566;2022-11-06T00:31:27;17.05;;;11.20;;
22144;SDS011;11238;48.730;11.566;2022-11-06T00:33:55;18.20;;;12.25;;
22144;SDS011;11238;48.730;11.566;2022-11-06T00:36:22;21.55;;;13.05;;
22144;SDS011;11238;48.730;11.566;2022-11-06T00:38:50;19.05;;;11.80;;
22144;SDS011;11238;48.730;11.566;2022-11-06T00:41:17;16.63;;;11.40;;
22144;SDS011;11238;48.730;11.566;2022-11-06T00:43:55;16.63;;;11.27;;
22144;SDS011;11238;48.730;11.566;2022-11-06T00:46:22;18.15;;;12.98;;
22144;SDS011;11238;48.730;11.566;2022-11-06T00:48:49;20.42;;;12.20;;
22144;SDS011;11238;48.730;11.566;2022-11-06T00:51:17;20.15;;;12.27;;
22144;SDS011;11238;48.730;11.566;2022-11-06T00:53:47;18.92;;;13.15;;
22144;SDS011;11238;48.730;11.566;2022-11-06T00:56:18;16.67;;;10.68;;
22144;SDS011;11238;48.730;11.566;2022-11-06T00:58:44;16.25;;;11.20;;
22144;SDS011;11238;48.730;11.566;2022-11-06T01:01:22;17.33;;;11.10;;
22144;SDS011;11238;48.730;11.566;2022-11-06T01:03:52;17.92;;;11.10;;
22144;SDS011;11238;48.730;11.566;2022-11-06T01:06:24;16.65;;;10.63;;
22144;SDS011;11238;48.730;11.566;2022-11-06T01:08:53;15.52;;;10.82;;
22144;SDS011;11238;48.730;11.566;2022-11-06T01:11:23;15.48;;;10.43;;
22144;SDS011;11238;48.730;11.566;2022-11-06T01:13:52;17.10;;;11.13;;
22144;SDS011;11238;48.730;11.566;2022-11-06T01:16:20;15.27;;;10.50;;
22144;SDS011;11238;48.730;11.566;2022-11-06T01:18:46;15.35;;;10.07;;
22144;SDS011;11238;48.730;11.566;2022-11-06T01:21:19;13.63;;;10.10;;
22144;SDS011;11238;48.730;11.566;2022-11-06T01:23:56;16.50;;;10.35;;
22144;SDS011;11238;48.730;11.566;2022-11-06T01:26:24;14.45;;;10.27;;
22144;SDS011;11238;48.730;11.566;2022-11-06T01:28:51;17.35;;;10.93;;
22144;SDS011;11238;48.730;11.566;2022-11-06T01:31:19;17.08;;;10.65;;
22144;SDS011;11238;48.730;11.566;2022-11-06T01:33:47;16.20;;;10.25;;
22144;SDS011;11238;48.730;11.566;2022-11-06T01:36:14;13.38;;;10.07;;
22144;SDS011;11238;48.730;11.566;2022-11-06T01:38:41;15.63;;;10.23;;
22144;SDS011;11238;48.730;11.566;2022-11-06T01:41:10;15.18;;;9.60;;
22144;SDS011;11238;48.730;11.566;2022-11-06T01:46:11;13.90;;;9.68;;
22144;SDS011;11238;48.730;11.566;2022-11-06T01:48:38;18.73;;;9.50;;
22144;SDS011;11238;48.730;11.566;2022-11-06T01:51:07;47.15;;;12.48;;
22144;SDS011;11238;48.730;11.566;2022-11-06T01:53:33;19.23;;;12.45;;
22144;SDS011;11238;48.730;11.566;2022-11-06T01:56:02;22.63;;;12.93;;
22144;SDS011;11238;48.730;11.566;2022-11-06T01:58:31;23.45;;;11.73;;
22144;SDS011;11238;48.730;11.566;2022-11-06T02:00:59;20.60;;;10.90;;
22144;SDS011;11238;48.730;11.566;2022-11-06T02:03:25;16.48;;;9.10;;
22144;SDS011;11238;48.730;11.566;2022-11-06T02:05:52;23.65;;;7.95;;
22144;SDS011;11238;48.730;11.566;2022-11-06T02:08:18;17.85;;;7.70;;
22144;SDS011;11238;48.730;11.566;2022-11-06T02:10:46;23.00;;;8.77;;
22144;SDS011;11238;48.730;11.566;2022-11-06T02:18:27;12.23;;;5.32;;
22144;SDS011;11238;48.730;11.566;2022-11-06T02:23:54;9.95;;;4.97;;
22144;SDS011;11238;48.730;11.566;2022-11-06T02:32:55;13.40;;;5.90;;
22144;SDS011;11238;48.730;11.566;2022-11-06T02:35:27;8.13;;;5.32;;
22144;SDS011;11238;48.730;11.566;2022-11-06T02:38:00;19.00;;;6.15;;
22144;SDS011;11238;48.730;11.566;2022-11-06T02:40:50;60.70;;;9.23;;
22144;SDS011;11238;48.730;11.566;2022-11-06T02:43:24;70.97;;;10.43;;
22144;SDS011;11238;48.730;11.566;2022-11-06T02:45:57;27.88;;;11.23;;
22144;SDS011;11238;48.730;11.566;2022-11-06T02:48:29;22.95;;;10.68;;
22144;SDS011;11238;48.730;11.566;2022-11-06T02:51:01;82.07;;;12.75;;
22144;SDS011;11238;48.730;11.566;2022-11-06T02:53:29;54.40;;;11.35;;
22144;SDS011;11238;48.730;11.566;2022-11-06T02:55:59;38.50;;;10.90;;
22144;SDS011;11238;48.730;11.566;2022-11-06T03:01:04;19.35;;;11.77;;
22144;SDS011;11238;48.730;11.566;2022-11-06T03:03:38;39.35;;;12.52;;
22144;SDS011;11238;48.730;11.566;2022-11-06T03:06:31;20.30;;;11.70;;
22144;SDS011;11238;48.730;11.566;2022-11-06T03:09:19;17.33;;;11.02;;
22144;SDS011;11238;48.730;11.566;2022-11-06T03:11:53;19.77;;;11.88;;
22144;SDS011;11238;48.730;11.566;2022-11-06T03:14:31;21.25;;;12.10;;
22144;SDS011;11238;48.730;11.566;2022-11-06T03:17:22;23.70;;;11.32;;
22144;SDS011;11238;48.730;11.566;2022-11-06T03:22:45;17.40;;;11.10;;
22144;SDS011;11238;48.730;11.566;2022-11-06T03:28:52;31.85;;;13.27;;
22144;SDS011;11238;48.730;11.566;2022-11-06T03:31:37;37.83;;;12.75;;
22144;SDS011;11238;48.730;11.566;2022-11-06T03:34:08;23.88;;;12.30;;
22144;SDS011;11238;48.730;11.566;2022-11-06T03:36:46;31.60;;;12.77;;
22144;SDS011;11238;48.730;11.566;2022-11-06T03:39:19;42.05;;;12.32;;
22144;SDS011;11238;48.730;11.566;2022-11-06T03:41:49;20.25;;;11.63;;
22144;SDS011;11238;48.730;11.566;2022-11-06T03:44:20;25.67;;;13.35;;
22144;SDS011;11238;48.730;11.566;2022-11-06T03:46:55;31.27;;;14.90;;
22144;SDS011;11238;48.730;11.566;2022-11-06T03:49:32;44.65;;;15.95;;
22144;SDS011;11238;48.730;11.566;2022-11-06T03:52:10;30.33;;;15.90;;
22144;SDS011;11238;48.730;11.566;2022-11-06T03:54:49;29.15;;;16.75;;
22144;SDS011;11238;48.730;11.566;2022-11-06T03:57:40;29.42;;;17.20;;
22144;SDS011;11238;48.730;11.566;2022-11-06T04:00:11;34.05;;;17.30;;
22144;SDS011;11238;48.730;11.566;2022-11-06T04:02:40;112.75;;;17.38;;
22144;SDS011;11238;48.730;11.566;2022-11-06T04:07:49;34.50;;;16.98;;
22144;SDS011;11238;48.730;11.566;2022-11-06T04:10:37;73.28;;;16.67;;
22144;SDS011;11238;48.730;11.566;2022-11-06T04:13:25;124.95;;;15.98;;
22144;SDS011;11238;48.730;11.566;2022-11-06T04:16:12;27.65;;;14.93;;
22144;SDS011;11238;48.730;11.566;2022-11-06T04:18:39;33.92;;;18.02;;
22144;SDS011;11238;48.730;11.566;2022-11-06T04:24:07;42.65;;;17.20;;
22144;SDS011;11238;48.730;11.566;2022-11-06T04:30:09;37.30;;;17.20;;
22144;SDS011;11238;48.730;11.566;2022-11-06T04:37:35;40.67;;;16.10;;
22144;SDS011;11238;48.730;11.566;2022-11-06T04:40:14;62.53;;;16.55;;
22144;SDS011;11238;48.730;11.566;2022-11-06T04:45:20;140.55;;;15.68;;
22144;SDS011;11238;48.730;11.566;2022-11-06T04:47:50;55.20;;;15.10;;
22144;SDS011;11238;48.730;11.566;2022-11-06T04:50:17;62.67;;;15.65;;
22144;SDS011;11238;48.730;11.566;2022-11-06T04:52:46;32.95;;;14.93;;
22144;SDS011;11238;48.730;11.566;2022-11-06T04:55:16;166.20;;;15.93;;
22144;SDS011;11238;48.730;11.566;2022-11-06T04:57:42;31.10;;;14.55;;
22144;SDS011;11238;48.730;11.566;2022-11-06T05:00:11;34.33;;;14.70;;
22144;SDS011;11238;48.730;11.566;2022-11-06T05:02:38;32.83;;;15.00;;
22144;SDS011;11238;48.730;11.566;2022-11-06T05:05:05;29.05;;;13.85;;
22144;SDS011;11238;48.730;11.566;2022-11-06T05:07:33;59.78;;;13.65;;
22144;SDS011;11238;48.730;11.566;2022-11-06T05:09:59;43.35;;;11.75;;
22144;SDS011;11238;48.730;11.566;2022-11-06T05:12:25;102.75;;;12.00;;
22144;SDS011;11238;48.730;11.566;2022-11-06T05:14:51;33.40;;;10.85;;
22144;SDS011;11238;48.730;11.566;2022-11-06T05:17:19;27.13;;;11.85;;
22144;SDS011;11238;48.730;11.566;2022-11-06T05:19:45;38.55;;;12.05;;
22144;SDS011;11238;48.730;11.566;2022-11-06T05:22:11;25.92;;;12.05;;
22144;SDS011;11238;48.730;11.566;2022-11-06T05:24:56;21.73;;;11.75;;
22144;SDS011;11238;48.730;11.566;2022-11-06T05:27:21;55.70;;;11.65;;
22144;SDS011;11238;48.730;11.566;2022-11-06T05:29:47;25.42;;;12.18;;
22144;SDS011;11238;48.730;11.566;2022-11-06T05:32:13;26.25;;;11.68;;
22144;SDS011;11238;48.730;11.566;2022-11-06T05:34:39;32.00;;;13.10;;
22144;SDS011;11238;48.730;11.566;2022-11-06T05:37:06;28.58;;;12.45;;
22144;SDS011;11238;48.730;11.566;2022-11-06T05:39:32;111.68;;;13.10;;
22144;SDS011;11238;48.730;11.566;2022-11-06T05:41:58;28.80;;;11.70;;
22144;SDS011;11238;48.730;11.566;2022-11-06T05:44:23;113.28;;;12.60;;
22144;SDS011;11238;48.730;11.566;2022-11-06T05:46:49;31.75;;;12.48;;
22144;SDS011;11238;48.730;11.566;2022-11-06T05:49:15;97.65;;;12.90;;
22144;SDS011;11238;48.730;11.566;2022-11-06T05:51:42;62.78;;;13.18;;
22144;SDS011;11238;48.730;11.566;2022-11-06T05:54:08;107.38;;;13.15;;
22144;SDS011;11238;48.730;11.566;2022-11-06T05:56:34;122.20;;;13.80;;
22144;SDS011;11238;48.730;11.566;2022-11-06T05:59:00;53.80;;;14.25;;
22144;SDS011;11238;48.730;11.566;2022-11-06T06:01:26;34.65;;;14.35;;
22144;SDS011;11238;48.730;11.566;2022-11-06T06:03:52;42.85;;;15.15;;
22144;SDS011;11238;48.730;11.566;2022-11-06T06:06:18;66.22;;;14.25;;
22144;SDS011;11238;48.730;11.566;2022-11-06T06:08:44;52.10;;;14.43;;
22144;SDS011;11238;48.730;11.566;2022-11-06T06:11:10;58.35;;;15.40;;
22144;SDS011;11238;48.730;11.566;2022-11-06T06:13:36;58.20;;;15.25;;
22144;SDS011;11238;48.730;11.566;2022-11-06T06:16:01;45.78;;;14.85;;
22144;SDS011;11238;48.730;11.566;2022-11-06T06:18:27;55.97;;;15.60;;
22144;SDS011;11238;48.730;11.566;2022-11-06T06:20:53;40.13;;;14.57;;
22144;SDS011;11238;48.730;11.566;2022-11-06T06:23:24;43.35;;;15.00;;
22144;SDS011;11238;48.730;11.566;2022-11-06T06:25:50;50.17;;;15.27;;
22144;SDS011;11238;48.730;11.566;2022-11-06T06:28:18;48.53;;;13.93;;
22144;SDS011;11238;48.730;11.566;2022-11-06T06:30:44;39.72;;;13.52;;
22144;SDS011;11238;48.730;11.566;2022-11-06T06:33:10;50.33;;;14.13;;
22144;SDS011;11238;48.730;11.566;2022-11-06T06:35:36;31.08;;;13.35;;
22144;SDS011;11238;48.730;11.566;2022-11-06T06:38:02;99.88;;;14.02;;
22144;SDS011;11238;48.730;11.566;2022-11-06T06:40:28;32.22;;;12.38;;
22144;SDS011;11238;48.730;11.566;2022-11-06T06:42:57;30.45;;;11.63;;
22144;SDS011;11238;48.730;11.566;2022-11-06T06:45:24;78.60;;;13.70;;
22144;SDS011;11238;48.730;11.566;2022-11-06T06:47:50;53.88;;;12.90;;
22144;SDS011;11238;48.730;11.566;2022-11-06T06:50:17;94.35;;;16.45;;
22144;SDS011;11238;48.730;11.566;2022-11-06T06:52:46;97.93;;;12.90;;
22144;SDS011;11238;48.730;11.566;2022-11-06T06:55:12;88.82;;;12.55;;
22144;SDS011;11238;48.730;11.566;2022-11-06T06:57:38;59.70;;;13.07;;
22144;SDS011;11238;48.730;11.566;2022-11-06T07:00:05;29.10;;;12.60;;
22144;SDS011;11238;48.730;11.566;2022-11-06T07:02:31;28.33;;;12.23;;
22144;SDS011;11238;48.730;11.566;2022-11-06T07:04:57;45.83;;;14.18;;
22144;SDS011;11238;48.730;11.566;2022-11-06T07:07:23;35.60;;;17.20;;
22144;SDS011;11238;48.730;11.566;2022-11-06T07:09:49;28.77;;;14.63;;
22144;SDS011;11238;48.730;11.566;2022-11-06T07:12:16;31.60;;;16.10;;
22144;SDS011;11238;48.730;11.566;2022-11-06T07:14:42;33.72;;;14.77;;
22144;SDS011;11238;48.730;11.566;2022-11-06T07:17:08;73.28;;;15.27;;
22144;SDS011;11238;48.730;11.566;2022-11-06T07:19:33;52.03;;;14.20;;
22144;SDS011;11238;48.730;11.566;2022-11-06T07:21:59;77.60;;;11.43;;
22144;SDS011;11238;48.730;11.566;2022-11-06T07:24:25;45.53;;;12.02;;
22144;SDS011;11238;48.730;11.566;2022-11-06T07:26:51;49.83;;;11.27;;
22144;SDS011;11238;48.730;11.566;2022-11-06T07:29:17;65.65;;;11.57;;
22144;SDS011;11238;48.730;11.566;2022-11-06T07:31:43;47.70;;;11.38;;
22144;SDS011;11238;48.730;11.566;2022-11-06T07:34:09;27.83;;;12.32;;
22144;SDS011;11238;48.730;11.566;2022-11-06T07:36:35;30.40;;;13.50;;
22144;SDS011;11238;48.730;11.566;2022-11-06T07:39:01;32.30;;;13.90;;
22144;SDS011;11238;48.730;11.566;2022-11-06T07:41:26;27.23;;;12.98;;
22144;SDS011;11238;48.730;11.566;2022-11-06T07:43:52;44.67;;;13.32;;
22144;SDS011;11238;48.730;11.566;2022-11-06T07:46:18;37.55;;;14.05;;
22144;SDS011;11238;48.730;11.566;2022-11-06T07:48:44;27.52;;;13.32;;
22144;SDS011;11238;48.730;11.566;2022-11-06T07:51:11;38.47;;;14.45;;
22144;SDS011;11238;48.730;11.566;2022-11-06T07:53:37;68.00;;;14.45;;
22144;SDS011;11238;48.730;11.566;2022-11-06T07:56:03;57.45;;;12.45;;
22144;SDS011;11238;48.730;11.566;2022-11-06T07:58:29;31.45;;;14.77;;
22144;SDS011;11238;48.730;11.566;2022-11-06T08:00:57;45.67;;;14.90;;
22144;SDS011;11238;48.730;11.566;2022-11-06T08:03:23;30.45;;;15.35;;
22144;SDS011;11238;48.730;11.566;2022-11-06T08:05:51;36.22;;;13.23;;
22144;SDS011;11238;48.730;11.566;2022-11-06T08:08:17;29.65;;;13.02;;
22144;SDS011;11238;48.730;11.566;2022-11-06T08:10:43;34.20;;;14.75;;
22144;SDS011;11238;48.730;11.566;2022-11-06T08:13:09;27.42;;;13.35;;
22144;SDS011;11238;48.730;11.566;2022-11-06T08:15:36;35.80;;;15.68;;
22144;SDS011;11238;48.730;11.566;2022-11-06T08:18:03;34.75;;;15.50;;
22144;SDS011;11238;48.730;11.566;2022-11-06T08:20:29;36.47;;;15.73;;
22144;SDS011;11238;48.730;11.566;2022-11-06T08:22:57;37.10;;;15.70;;
22144;SDS011;11238;48.730;11.566;2022-11-06T08:25:27;37.20;;;15.90;;
22144;SDS011;11238;48.730;11.566;2022-11-06T08:27:54;34.92;;;16.85;;
22144;SDS011;11238;48.730;11.566;2022-11-06T08:30:21;34.80;;;17.13;;
22144;SDS011;11238;48.730;11.566;2022-11-06T08:32:47;36.58;;;17.42;;
22144;SDS011;11238;48.730;11.566;2022-11-06T08:35:12;33.85;;;15.32;;
22144;SDS011;11238;48.730;11.566;2022-11-06T08:37:39;32.35;;;16.25;;
22144;SDS011;11238;48.730;11.566;2022-11-06T08:40:05;34.70;;;16.35;;
22144;SDS011;11238;48.730;11.566;2022-11-06T08:42:31;36.08;;;16.10;;
22144;SDS011;11238;48.730;11.566;2022-11-06T08:44:57;33.72;;;15.40;;
22144;SDS011;11238;48.730;11.566;2022-11-06T08:47:23;33.90;;;15.82;;
22144;SDS011;11238;48.730;11.566;2022-11-06T08:49:51;36.95;;;17.30;;
22144;SDS011;11238;48.730;11.566;2022-11-06T08:52:17;36.60;;;17.73;;
22144;SDS011;11238;48.730;11.566;2022-11-06T08:54:43;39.30;;;17.58;;
22144;SDS011;11238;48.730;11.566;2022-11-06T08:57:09;40.58;;;17.60;;
22144;SDS011;11238;48.730;11.566;2022-11-06T08:59:35;44.40;;;19.75;;
22144;SDS011;11238;48.730;11.566;2022-11-06T09:02:01;43.90;;;20.70;;
22144;SDS011;11238;48.730;11.566;2022-11-06T09:04:27;43.45;;;20.67;;
22144;SDS011;11238;48.730;11.566;2022-11-06T09:06:52;42.15;;;21.02;;
22144;SDS011;11238;48.730;11.566;2022-11-06T09:09:20;38.80;;;19.45;;
22144;SDS011;11238;48.730;11.566;2022-11-06T09:11:46;40.88;;;19.27;;
22144;SDS011;11238;48.730;11.566;2022-11-06T09:14:11;46.92;;;22.63;;
22144;SDS011;11238;48.730;11.566;2022-11-06T09:16:37;44.17;;;20.98;;
22144;SDS011;11238;48.730;11.566;2022-11-06T09:19:06;41.42;;;20.20;;
22144;SDS011;11238;48.730;11.566;2022-11-06T09:21:33;45.35;;;20.73;;
22144;SDS011;11238;48.730;11.566;2022-11-06T09:23:59;44.38;;;19.55;;
22144;SDS011;11238;48.730;11.566;2022-11-06T09:26:25;45.05;;;20.88;;
22144;SDS011;11238;48.730;11.566;2022-11-06T09:28:51;50.38;;;21.58;;
22144;SDS011;11238;48.730;11.566;2022-11-06T09:31:17;47.90;;;22.00;;
22144;SDS011;11238;48.730;11.566;2022-11-06T09:33:44;51.58;;;22.33;;
22144;SDS011;11238;48.730;11.566;2022-11-06T09:36:10;47.13;;;22.08;;
22144;SDS011;11238;48.730;11.566;2022-11-06T09:38:35;55.55;;;22.77;;
22144;SDS011;11238;48.730;11.566;2022-11-06T09:41:02;49.35;;;22.67;;
22144;SDS011;11238;48.730;11.566;2022-11-06T09:46:25;44.97;;;21.13;;
22144;SDS011;11238;48.730;11.566;2022-11-06T09:51:59;44.90;;;22.52;;
22144;SDS011;11238;48.730;11.566;2022-11-06T09:54:41;48.95;;;23.90;;
22144;SDS011;11238;48.730;11.566;2022-11-06T09:57:54;49.85;;;23.80;;
22144;SDS011;11238;48.730;11.566;2022-11-06T10:00:03;48.47;;;22.88;;
22144;SDS011;11238;48.730;11.566;2022-11-06T10:07:35;87.25;;;45.58;;
22144;SDS011;11238;48.730;11.566;2022-11-06T10:10:04;78.78;;;42.53;;
22144;SDS011;11238;48.730;11.566;2022-11-06T10:18:25;42.83;;;23.17;;
22144;SDS011;11238;48.730;11.566;2022-11-06T10:21:15;39.45;;;23.17;;
22144;SDS011;11238;48.730;11.566;2022-11-06T10:23:46;42.58;;;24.30;;
22144;SDS011;11238;48.730;11.566;2022-11-06T10:26:24;53.22;;;32.92;;
22144;SDS011;11238;48.730;11.566;2022-11-06T10:31:41;41.10;;;23.60;;
22144;SDS011;11238;48.730;11.566;2022-11-06T10:34:20;36.83;;;21.70;;
22144;SDS011;11238;48.730;11.566;2022-11-06T10:37:10;38.00;;;21.98;;
22144;SDS011;11238;48.730;11.566;2022-11-06T10:39:42;36.83;;;21.20;;
22144;SDS011;11238;48.730;11.566;2022-11-06T10:42:18;37.13;;;21.80;;
22144;SDS011;11238;48.730;11.566;2022-11-06T10:44:48;33.92;;;20.88;;
22144;SDS011;11238;48.730;11.566;2022-11-06T10:47:26;30.48;;;17.50;;
22144;SDS011;11238;48.730;11.566;2022-11-06T10:50:01;30.52;;;18.70;;
22144;SDS011;11238;48.730;11.566;2022-11-06T10:56:18;25.98;;;16.75;;
22144;SDS011;11238;48.730;11.566;2022-11-06T10:58:31;28.90;;;18.27;;
22144;SDS011;11238;48.730;11.566;2022-11-06T11:00:59;32.75;;;19.13;;
22144;SDS011;11238;48.730;11.566;2022-11-06T11:04:01;26.95;;;16.50;;
22144;SDS011;11238;48.730;11.566;2022-11-06T11:06:19;27.73;;;16.60;;
22144;SDS011;11238;48.730;11.566;2022-11-06T11:08:46;32.00;;;18.92;;
22144;SDS011;11238;48.730;11.566;2022-11-06T11:11:20;30.50;;;17.17;;
22144;SDS011;11238;48.730;11.566;2022-11-06T11:18:53;32.80;;;18.27;;
22144;SDS011;11238;48.730;11.566;2022-11-06T11:21:26;29.88;;;17.77;;
22144;SDS011;11238;48.730;11.566;2022-11-06T11:24:05;30.55;;;17.85;;
22144;SDS011;11238;48.730;11.566;2022-11-06T11:26:43;31.33;;;18.33;;
22144;SDS011;11238;48.730;11.566;2022-11-06T11:29:22;27.23;;;17.02;;
22144;SDS011;11238;48.730;11.566;2022-11-06T11:31:54;26.63;;;17.33;;
22144;SDS011;11238;48.730;11.566;2022-11-06T11:34:24;31.85;;;17.70;;
22144;SDS011;11238;48.730;11.566;2022-11-06T11:39:28;30.35;;;17.77;;
22144;SDS011;11238;48.730;11.566;2022-11-06T11:47:33;25.42;;;16.83;;
22144;SDS011;11238;48.730;11.566;2022-11-06T11:50:24;24.27;;;16.63;;
22144;SDS011;11238;48.730;11.566;2022-11-06T11:52:52;25.48;;;16.58;;
22144;SDS011;11238;48.730;11.566;2022-11-06T11:55:24;24.38;;;15.98;;
22144;SDS011;11238;48.730;11.566;2022-11-06T11:57:53;23.55;;;16.05;;
22144;SDS011;11238;48.730;11.566;2022-11-06T12:00:21;21.60;;;14.65;;
22144;SDS011;11238;48.730;11.566;2022-11-06T12:02:49;23.85;;;16.45;;
22144;SDS011;11238;48.730;11.566;2022-11-06T12:05:23;31.63;;;20.05;;
22144;SDS011;11238;48.730;11.566;2022-11-06T12:08:01;26.73;;;16.58;;
22144;SDS011;11238;48.730;11.566;2022-11-06T12:10:37;20.85;;;14.93;;
22144;SDS011;11238;48.730;11.566;2022-11-06T12:13:06;22.50;;;15.65;;
22144;SDS011;11238;48.730;11.566;2022-11-06T12:18:26;22.83;;;14.80;;
22144;SDS011;11238;48.730;11.566;2022-11-06T12:21:27;21.80;;;14.95;;
22144;SDS011;11238;48.730;11.566;2022-11-06T12:24:01;21.90;;;15.13;;
22144;SDS011;11238;48.730;11.566;2022-11-06T12:26:34;20.13;;;14.40;;
22144;SDS011;11238;48.730;11.566;2022-11-06T12:29:50;23.25;;;15.45;;
22144;SDS011;11238;48.730;11.566;2022-11-06T12:35:17;23.20;;;15.60;;
22144;SDS011;11238;48.730;11.566;2022-11-06T12:37:59;19.38;;;14.45;;
22144;SDS011;11238;48.730;11.566;2022-11-06T12:40:30;20.45;;;15.05;;
22144;SDS011;11238;48.730;11.566;2022-11-06T12:56:43;22.63;;;15.30;;
22144;SDS011;11238;48.730;11.566;2022-11-06T13:04:27;22.35;;;16.20;;
22144;SDS011;11238;48.730;11.566;2022-11-06T13:12:36;22.80;;;17.23;;
22144;SDS011;11238;48.730;11.566;2022-11-06T13:15:29;22.77;;;17.08;;
22144;SDS011;11238;48.730;11.566;2022-11-06T13:18:12;21.52;;;17.25;;
22144;SDS011;11238;48.730;11.566;2022-11-06T13:20:53;21.30;;;16.58;;
22144;SDS011;11238;48.730;11.566;2022-11-06T13:23:35;20.63;;;16.67;;
22144;SDS011;11238;48.730;11.566;2022-11-06T13:28:53;24.30;;;18.02;;
22144;SDS011;11238;48.730;11.566;2022-11-06T13:31:24;21.52;;;17.17;;
22144;SDS011;11238;48.730;11.566;2022-11-06T13:33:58;21.08;;;15.90;;
22144;SDS011;11238;48.730;11.566;2022-11-06T13:36:27;19.55;;;15.90;;
22144;SDS011;11238;48.730;11.566;2022-11-06T13:41:38;21.13;;;16.75;;
22144;SDS011;11238;48.730;11.566;2022-11-06T13:44:05;20.25;;;15.13;;
22144;SDS011;11238;48.730;11.566;2022-11-06T13:49:33;20.40;;;14.13;;
22144;SDS011;11238;48.730;11.566;2022-11-06T13:52:20;19.92;;;13.45;;
22144;SDS011;11238;48.730;11.566;2022-11-06T14:00:22;19.30;;;14.18;;
22144;SDS011;11238;48.730;11.566;2022-11-06T14:06:22;18.50;;;13.95;;
22144;SDS011;11238;48.730;11.566;2022-11-06T14:11:20;16.65;;;13.05;;
22144;SDS011;11238;48.730;11.566;2022-11-06T14:14:13;18.27;;;13.40;;
22144;SDS011;11238;48.730;11.566;2022-11-06T14:16:45;18.05;;;13.25;;
22144;SDS011;11238;48.730;11.566;2022-11-06T14:22:16;19.80;;;12.98;;
22144;SDS011;11238;48.730;11.566;2022-11-06T14:24:53;17.88;;;12.60;;
22144;SDS011;11238;48.730;11.566;2022-11-06T14:29:55;16.58;;;13.18;;
22144;SDS011;11238;48.730;11.566;2022-11-06T14:34:48;16.40;;;12.43;;
22144;SDS011;11238;48.730;11.566;2022-11-06T14:47:37;18.35;;;14.20;;
22144;SDS011;11238;48.730;11.566;2022-11-06T14:52:51;17.60;;;13.85;;
22144;SDS011;11238;48.730;11.566;2022-11-06T14:55:42;19.13;;;13.70;;
22144;SDS011;11238;48.730;11.566;2022-11-06T14:58:22;17.40;;;13.60;;
22144;SDS011;11238;48.730;11.566;2022-11-06T15:00:55;16.20;;;13.02;;
22144;SDS011;11238;48.730;11.566;2022-11-06T15:09:05;18.73;;;14.38;;
22144;SDS011;11238;48.730;11.566;2022-11-06T15:11:50;18.40;;;14.95;;
22144;SDS011;11238;48.730;11.566;2022-11-06T15:16:48;21.80;;;17.08;;
22144;SDS011;11238;48.730;11.566;2022-11-06T15:19:19;27.63;;;18.92;;
22144;SDS011;11238;48.730;11.566;2022-11-06T15:24:51;31.38;;;22.17;;
22144;SDS011;11238;48.730;11.566;2022-11-06T15:27:22;36.85;;;26.52;;
22144;SDS011;11238;48.730;11.566;2022-11-06T15:29:53;31.02;;;22.98;;
22144;SDS011;11238;48.730;11.566;2022-11-06T15:32:22;27.58;;;20.27;;
22144;SDS011;11238;48.730;11.566;2022-11-06T15:34:53;24.17;;;18.52;;
22144;SDS011;11238;48.730;11.566;2022-11-06T15:37:24;22.10;;;16.70;;
22144;SDS011;11238;48.730;11.566;2022-11-06T15:39:56;18.00;;;14.50;;
22144;SDS011;11238;48.730;11.566;2022-11-06T15:42:26;17.40;;;14.27;;
22144;SDS011;11238;48.730;11.566;2022-11-06T15:45:07;17.77;;;13.50;;
22144;SDS011;11238;48.730;11.566;2022-11-06T15:47:40;17.17;;;13.50;;
22144;SDS011;11238;48.730;11.566;2022-11-06T15:50:30;17.80;;;13.07;;
22144;SDS011;11238;48.730;11.566;2022-11-06T15:55:39;26.88;;;17.33;;
22144;SDS011;11238;48.730;11.566;2022-11-06T16:00:42;38.15;;;24.77;;
22144;SDS011;11238;48.730;11.566;2022-11-06T16:03:10;27.90;;;20.25;;
22144;SDS011;11238;48.730;11.566;2022-11-06T16:05:39;27.98;;;19.00;;
22144;SDS011;11238;48.730;11.566;2022-11-06T16:08:05;29.40;;;19.20;;
22144;SDS011;11238;48.730;11.566;2022-11-06T16:10:31;48.00;;;30.50;;
22144;SDS011;11238;48.730;11.566;2022-11-06T16:13:00;72.60;;;41.53;;
22144;SDS011;11238;48.730;11.566;2022-11-06T16:15:43;80.95;;;44.60;;
22144;SDS011;11238;48.730;11.566;2022-11-06T16:21:15;70.95;;;38.90;;
22144;SDS011;11238;48.730;11.566;2022-11-06T16:26:19;37.25;;;25.27;;
22144;SDS011;11238;48.730;11.566;2022-11-06T16:29:18;43.33;;;26.95;;
22144;SDS011;11238;48.730;11.566;2022-11-06T16:31:45;49.95;;;31.17;;
22144;SDS011;11238;48.730;11.566;2022-11-06T16:37:01;46.88;;;29.38;;
22144;SDS011;11238;48.730;11.566;2022-11-06T16:39:31;43.38;;;27.88;;
22144;SDS011;11238;48.730;11.566;2022-11-06T16:47:09;44.30;;;26.83;;
22144;SDS011;11238;48.730;11.566;2022-11-06T16:49:38;48.55;;;30.17;;
22144;SDS011;11238;48.730;11.566;2022-11-06T16:57:42;70.93;;;43.42;;
22144;SDS011;11238;48.730;11.566;2022-11-06T17:02:56;70.97;;;47.13;;
22144;SDS011;11238;48.730;11.566;2022-11-06T17:05:31;64.05;;;40.88;;
22144;SDS011;11238;48.730;11.566;2022-11-06T17:10:50;50.33;;;34.25;;
22144;SDS011;11238;48.730;11.566;2022-11-06T17:13:21;50.92;;;35.28;;
22144;SDS011;11238;48.730;11.566;2022-11-06T17:15:54;57.45;;;38.67;;
22144;SDS011;11238;48.730;11.566;2022-11-06T17:18:36;59.65;;;39.03;;
22144;SDS011;11238;48.730;11.566;2022-11-06T17:21:21;67.68;;;42.97;;
22144;SDS011;11238;48.730;11.566;2022-11-06T17:23:49;56.22;;;38.22;;
22144;SDS011;11238;48.730;11.566;2022-11-06T17:26:26;50.90;;;35.75;;
22144;SDS011;11238;48.730;11.566;2022-11-06T17:28:54;47.03;;;33.78;;
22144;SDS011;11238;48.730;11.566;2022-11-06T17:31:21;49.97;;;33.83;;
22144;SDS011;11238;48.730;11.566;2022-11-06T17:33:50;52.85;;;38.55;;
22144;SDS011;11238;48.730;11.566;2022-11-06T17:36:23;47.30;;;33.78;;
22144;SDS011;11238;48.730;11.566;2022-11-06T17:38:51;43.33;;;31.13;;
22144;SDS011;11238;48.730;11.566;2022-11-06T17:41:18;46.85;;;28.20;;